createdAt,value
2023-04-09T00:01:34.468Z,96.07
2023-04-09T00:04:01.697Z,106.00
2023-04-09T00:06:28.226Z,101.45
2023-04-09T00:08:54.758Z,101.78
2023-04-09T00:11:21.505Z,95.93
2023-04-09T00:13:47.946Z,97.35
2023-04-09T00:16:14.384Z,100.78
2023-04-09T00:18:41.300Z,100.05
2023-04-09T00:21:08.561Z,103.50
2023-04-09T00:23:35.397Z,92.32
2023-04-09T00:26:01.759Z,101.53
2023-04-09T00:28:28.160Z,102.90
2023-04-09T00:30:54.517Z,92.78
2023-04-09T00:33:21.154Z,103.90
2023-04-09T00:35:47.662Z,105.40
2023-04-09T00:38:14.065Z,104.00
2023-04-09T00:40:41.029Z,99.75
2023-04-09T00:43:07.528Z,104.57
2023-04-09T00:45:34.133Z,108.20
2023-04-09T00:48:00.855Z,103.18
2023-04-09T00:50:27.577Z,103.57
2023-04-09T00:52:53.946Z,90.45
2023-04-09T00:55:21.305Z,90.90
2023-04-09T00:57:47.668Z,103.50
2023-04-09T01:00:14.615Z,96.28
2023-04-09T01:02:41.438Z,87.30
2023-04-09T01:05:08.652Z,86.68
2023-04-09T01:07:45.912Z,85.32
2023-04-09T01:10:45.406Z,78.25
2023-04-09T01:13:16.094Z,94.90
2023-04-09T01:15:53.869Z,99.82
2023-04-09T01:18:35.360Z,106.15
2023-04-09T01:21:19.484Z,102.47
2023-04-09T01:24:20.861Z,103.78
2023-04-09T01:27:05.251Z,106.72
2023-04-09T01:29:57.792Z,99.75
2023-04-09T01:32:26.217Z,104.88
2023-04-09T01:34:53.487Z,100.15
2023-04-09T01:37:20.847Z,110.97
2023-04-09T01:39:47.387Z,100.63
2023-04-09T01:42:15.847Z,102.25
2023-04-09T01:44:44.234Z,99.38
2023-04-09T01:47:11.462Z,100.03
2023-04-09T01:49:43.258Z,104.22
2023-04-09T01:52:10.079Z,119.18
2023-04-09T01:54:36.470Z,106.70
2023-04-09T01:57:02.914Z,107.85
2023-04-09T01:59:29.298Z,98.95
2023-04-09T02:02:05.232Z,100.45
2023-04-09T02:04:46.398Z,104.13
2023-04-09T02:07:22.352Z,110.35
2023-04-09T02:09:50.018Z,99.53
2023-04-09T02:12:18.106Z,93.75
2023-04-09T02:14:50.688Z,101.72
2023-04-09T02:17:17.625Z,99.22
2023-04-09T02:19:46.177Z,92.15
2023-04-09T02:22:14.944Z,101.07
2023-04-09T02:24:41.546Z,103.25
2023-04-09T02:27:08.507Z,98.35
2023-04-09T02:29:34.931Z,98.95
2023-04-09T02:32:01.623Z,99.55
2023-04-09T02:34:28.199Z,96.20
2023-04-09T02:36:55.003Z,98.40
2023-04-09T02:39:21.484Z,93.15
2023-04-09T02:41:47.845Z,101.93
2023-04-09T02:44:14.211Z,85.80
2023-04-09T02:46:41.809Z,96.43
2023-04-09T02:49:08.288Z,101.45
2023-04-09T02:51:37.801Z,97.93
2023-04-09T02:54:04.530Z,98.20
2023-04-09T02:56:30.961Z,95.70
2023-04-09T02:58:57.310Z,90.72
2023-04-09T03:01:23.880Z,100.85
2023-04-09T03:03:50.682Z,92.75
2023-04-09T03:06:18.335Z,105.47
2023-04-09T03:08:44.813Z,103.88
2023-04-09T03:11:11.300Z,91.40
2023-04-09T03:13:37.676Z,96.78
2023-04-09T03:16:04.366Z,95.63
2023-04-09T03:18:30.791Z,99.22
2023-04-09T03:20:57.225Z,97.43
2023-04-09T03:23:24.403Z,92.07
2023-04-09T03:26:00.348Z,96.35
2023-04-09T03:28:26.968Z,82.72
2023-04-09T03:30:54.215Z,90.90
2023-04-09T03:33:21.648Z,98.32
2023-04-09T03:35:53.955Z,97.13
2023-04-09T03:38:42.999Z,93.57
2023-04-09T03:41:21.645Z,98.22
2023-04-09T03:43:48.216Z,109.70
2023-04-09T03:46:18.865Z,101.20
2023-04-09T03:48:47.393Z,96.47
2023-04-09T03:51:17.840Z,96.75
2023-04-09T03:53:50.533Z,98.78
2023-04-09T03:56:16.902Z,92.38
2023-04-09T03:58:43.508Z,88.40
2023-04-09T04:01:12.429Z,85.80
2023-04-09T04:03:48.883Z,82.38
2023-04-09T04:06:27.932Z,94.57
2023-04-09T04:09:06.378Z,94.18
2023-04-09T04:11:42.960Z,88.35
2023-04-09T04:14:09.999Z,94.07
2023-04-09T04:16:37.280Z,98.20
2023-04-09T04:19:05.350Z,93.75
2023-04-09T04:21:38.614Z,92.78
2023-04-09T04:24:05.868Z,92.55
2023-04-09T04:26:32.359Z,92.05
2023-04-09T04:28:58.978Z,98.65
2023-04-09T04:31:43.097Z,94.10
2023-04-09T04:34:10.074Z,101.90
2023-04-09T04:36:36.703Z,100.35
2023-04-09T04:39:03.362Z,99.80
2023-04-09T04:41:35.258Z,108.47
2023-04-09T04:44:08.402Z,109.88
2023-04-09T04:46:35.313Z,98.43
2023-04-09T04:49:02.191Z,99.95
2023-04-09T04:51:33.412Z,104.35
2023-04-09T04:54:04.680Z,105.65
2023-04-09T04:56:31.402Z,110.93
2023-04-09T04:59:15.684Z,107.32
2023-04-09T05:01:53.598Z,102.00
2023-04-09T05:04:20.216Z,98.13
2023-04-09T05:06:46.598Z,109.20
2023-04-09T05:09:17.680Z,104.35
2023-04-09T05:11:57.091Z,109.70
2023-04-09T05:14:25.065Z,109.18
2023-04-09T05:16:52.126Z,109.25
2023-04-09T05:19:22.416Z,111.90
2023-04-09T05:21:54.758Z,111.45
2023-04-09T05:24:22.185Z,120.40
2023-04-09T05:26:48.595Z,124.93
2023-04-09T05:29:17.757Z,117.03
2023-04-09T05:31:44.205Z,114.75
2023-04-09T05:34:20.504Z,113.60
2023-04-09T05:36:50.970Z,113.47
2023-04-09T05:39:19.333Z,110.18
2023-04-09T05:41:46.565Z,114.53
2023-04-09T05:44:34.834Z,112.50
2023-04-09T05:47:07.136Z,114.38
2023-04-09T05:49:41.106Z,103.05
2023-04-09T05:52:11.759Z,118.43
2023-04-09T05:54:38.159Z,103.53
2023-04-09T05:57:07.159Z,111.82
2023-04-09T05:59:36.426Z,108.72
2023-04-09T06:02:02.837Z,108.97
2023-04-09T06:04:29.243Z,101.97
2023-04-09T06:06:56.107Z,109.13
2023-04-09T06:09:22.457Z,106.90
2023-04-09T06:11:49.873Z,107.80
2023-04-09T06:14:18.034Z,106.03
2023-04-09T06:16:44.883Z,107.40
2023-04-09T06:19:12.429Z,111.75
2023-04-09T06:21:38.980Z,113.28
2023-04-09T06:24:05.687Z,108.70
2023-04-09T06:26:32.036Z,115.32
2023-04-09T06:28:59.187Z,115.88
2023-04-09T06:31:25.712Z,102.75
2023-04-09T06:33:52.273Z,137.88
2023-04-09T06:36:20.634Z,125.15
2023-04-09T06:38:46.985Z,120.30
2023-04-09T06:41:14.710Z,121.15
2023-04-09T06:43:41.379Z,112.05
2023-04-09T06:46:08.575Z,103.50
2023-04-09T06:48:35.139Z,104.63
2023-04-09T06:51:01.635Z,112.63
2023-04-09T06:53:28.153Z,110.05
2023-04-09T06:55:56.545Z,108.30
2023-04-09T06:58:23.438Z,108.78
2023-04-09T07:00:49.862Z,111.28
2023-04-09T07:03:16.385Z,120.88
2023-04-09T07:05:43.232Z,108.68
2023-04-09T07:08:09.602Z,116.78
2023-04-09T07:10:36.059Z,114.15
2023-04-09T07:13:03.356Z,113.88
2023-04-09T07:15:30.103Z,114.35
2023-04-09T07:17:57.665Z,110.45
2023-04-09T07:20:24.370Z,104.45
2023-04-09T07:22:50.773Z,109.70
2023-04-09T07:25:17.202Z,111.03
2023-04-09T07:27:44.430Z,92.90
2023-04-09T07:30:11.012Z,108.60
2023-04-09T07:32:38.079Z,97.10
2023-04-09T07:35:07.877Z,98.25
2023-04-09T07:37:34.232Z,89.68
2023-04-09T07:40:00.914Z,95.50
2023-04-09T07:42:28.233Z,95.07
2023-04-09T07:44:54.747Z,82.50
2023-04-09T07:47:21.246Z,94.35
2023-04-09T07:49:47.713Z,94.55
2023-04-09T07:52:14.558Z,89.35
2023-04-09T07:54:40.923Z,91.72
2023-04-09T07:57:07.374Z,81.05
2023-04-09T07:59:36.817Z,93.10
2023-04-09T08:02:03.621Z,86.07
2023-04-09T08:04:30.268Z,85.53
2023-04-09T08:06:56.732Z,91.28
2023-04-09T08:09:23.228Z,83.50
2023-04-09T08:11:50.308Z,82.80
2023-04-09T08:14:17.878Z,90.93
2023-04-09T08:16:46.361Z,77.07
2023-04-09T08:19:14.647Z,74.03
2023-04-09T08:21:43.101Z,66.00
2023-04-09T08:24:11.464Z,74.93
2023-04-09T08:26:39.207Z,68.43
2023-04-09T08:29:05.764Z,68.60
2023-04-09T08:31:32.210Z,72.22
2023-04-09T08:33:58.630Z,69.90
2023-04-09T08:36:26.228Z,65.30
2023-04-09T08:38:55.628Z,61.72
2023-04-09T08:41:28.489Z,60.25
2023-04-09T08:43:58.756Z,58.55
2023-04-09T08:46:28.953Z,55.47
2023-04-09T08:48:55.598Z,49.80
2023-04-09T08:51:24.061Z,54.50
2023-04-09T08:54:03.646Z,50.00
2023-04-09T08:56:31.093Z,48.60
2023-04-09T08:58:57.443Z,51.60
2023-04-09T09:01:26.570Z,47.65
2023-04-09T09:04:00.987Z,49.53
2023-04-09T09:06:29.918Z,44.50
2023-04-09T09:09:10.578Z,54.25
2023-04-09T09:11:39.514Z,41.38
2023-04-09T09:14:06.867Z,41.45
2023-04-09T09:16:35.001Z,41.17
2023-04-09T09:19:02.851Z,51.05
2023-04-09T09:21:30.048Z,44.70
2023-04-09T09:23:57.599Z,42.85
2023-04-09T09:26:26.661Z,46.47
2023-04-09T09:28:53.505Z,45.17
2023-04-09T09:31:21.880Z,48.70
2023-04-09T09:33:50.427Z,45.97
2023-04-09T09:36:33.921Z,43.58
2023-04-09T09:39:09.677Z,44.60
2023-04-09T09:41:37.002Z,45.38
2023-04-09T09:44:04.471Z,45.47
2023-04-09T09:46:35.678Z,40.92
2023-04-09T09:49:02.364Z,41.63
2023-04-09T09:51:28.896Z,45.50
2023-04-09T09:53:57.123Z,45.83
2023-04-09T09:56:32.246Z,46.60
2023-04-09T09:59:07.864Z,38.17
2023-04-09T10:01:37.872Z,41.40
2023-04-09T10:04:06.337Z,39.78
2023-04-09T10:06:38.636Z,40.33
2023-04-09T10:09:06.660Z,41.88
2023-04-09T10:11:35.135Z,37.58
2023-04-09T10:14:02.183Z,35.88
2023-04-09T10:16:29.065Z,35.10
2023-04-09T10:18:56.941Z,36.65
2023-04-09T10:21:43.649Z,38.53
2023-04-09T10:24:10.825Z,40.83
2023-04-09T10:26:40.932Z,41.97
2023-04-09T10:29:14.398Z,41.03
2023-04-09T10:32:04.123Z,37.63
2023-04-09T10:34:36.125Z,39.13
2023-04-09T10:37:02.826Z,39.42
2023-04-09T10:39:31.901Z,37.33
2023-04-09T10:41:59.719Z,37.88
2023-04-09T10:44:27.766Z,38.22
2023-04-09T10:46:55.426Z,35.40
2023-04-09T10:49:22.878Z,36.08
2023-04-09T10:51:53.255Z,37.05
2023-04-09T10:54:34.645Z,40.05
2023-04-09T10:57:16.553Z,35.60
2023-04-09T10:59:45.321Z,33.30
2023-04-09T11:02:35.955Z,31.63
2023-04-09T11:05:07.077Z,33.30
2023-04-09T11:07:39.746Z,33.30
2023-04-09T11:10:07.118Z,36.53
2023-04-09T11:12:33.782Z,33.47
2023-04-09T11:15:00.273Z,33.72
2023-04-09T11:17:27.876Z,32.72
2023-04-09T11:19:55.577Z,32.53
2023-04-09T11:22:22.220Z,35.10
2023-04-09T11:24:50.694Z,35.53
2023-04-09T11:27:19.476Z,34.28
2023-04-09T11:29:45.844Z,35.35
2023-04-09T11:32:13.029Z,35.38
2023-04-09T11:34:39.574Z,31.30
2023-04-09T11:37:09.169Z,32.63
2023-04-09T11:39:38.387Z,32.67
2023-04-09T11:42:04.845Z,37.35
2023-04-09T11:44:31.249Z,32.88
2023-04-09T11:46:58.987Z,35.33
2023-04-09T11:49:25.846Z,33.90
2023-04-09T11:51:53.197Z,32.60
2023-04-09T11:54:19.584Z,30.33
2023-04-09T11:56:46.134Z,32.35
2023-04-09T11:59:15.278Z,31.85
2023-04-09T12:01:41.897Z,31.40
2023-04-09T12:04:09.452Z,28.77
2023-04-09T12:06:40.622Z,32.22
2023-04-09T12:09:08.633Z,27.98
2023-04-09T12:11:37.080Z,26.02
2023-04-09T12:14:05.536Z,27.48
2023-04-09T12:16:34.226Z,26.30
2023-04-09T12:19:06.467Z,30.75
2023-04-09T12:21:58.104Z,25.67
2023-04-09T12:24:25.867Z,24.17
2023-04-09T12:26:52.518Z,25.00
2023-04-09T12:29:20.593Z,20.42
2023-04-09T12:31:50.664Z,26.15
2023-04-09T12:34:17.884Z,24.35
2023-04-09T12:36:44.255Z,26.58
2023-04-09T12:39:10.922Z,19.83
2023-04-09T12:41:37.442Z,23.58
2023-04-09T12:44:04.885Z,22.77
2023-04-09T12:46:32.419Z,24.55
2023-04-09T12:48:59.088Z,27.42
2023-04-09T12:51:25.690Z,28.17
2023-04-09T12:53:52.350Z,27.33
2023-04-09T12:56:18.877Z,23.27
2023-04-09T12:58:45.261Z,24.13
2023-04-09T13:01:11.747Z,24.02
2023-04-09T13:03:39.021Z,25.20
2023-04-09T13:06:05.846Z,24.98
2023-04-09T13:08:32.264Z,26.98
2023-04-09T13:10:58.679Z,30.60
2023-04-09T13:13:25.096Z,27.27
2023-04-09T13:15:52.042Z,27.75
2023-04-09T13:18:18.425Z,26.90
2023-04-09T13:20:44.805Z,24.25
2023-04-09T13:23:11.359Z,25.10
2023-04-09T13:25:37.852Z,28.23
2023-04-09T13:28:04.323Z,27.52
2023-04-09T13:30:30.776Z,29.55
2023-04-09T13:32:57.244Z,28.38
2023-04-09T13:35:23.812Z,26.85
2023-04-09T13:37:50.415Z,25.15
2023-04-09T13:40:16.952Z,31.10
2023-04-09T13:42:43.304Z,29.88
2023-04-09T13:45:10.151Z,24.48
2023-04-09T13:47:36.656Z,26.45
2023-04-09T13:50:03.497Z,24.30
2023-04-09T13:52:30.057Z,26.83
2023-04-09T13:54:56.556Z,27.23
2023-04-09T13:57:22.906Z,29.15
2023-04-09T13:59:49.643Z,27.25
2023-04-09T14:02:17.917Z,23.25
2023-04-09T14:04:44.552Z,27.98
2023-04-09T14:07:10.972Z,27.35
2023-04-09T14:09:37.331Z,27.50
2023-04-09T14:12:03.719Z,27.92
2023-04-09T14:14:30.093Z,30.42
2023-04-09T14:16:56.450Z,28.40
2023-04-09T14:19:22.914Z,31.10
2023-04-09T14:21:49.301Z,32.75
2023-04-09T14:24:15.975Z,34.13
2023-04-09T14:26:42.432Z,31.23
2023-04-09T14:29:08.795Z,34.78
2023-04-09T14:31:35.297Z,31.48
2023-04-09T14:34:01.764Z,31.67
2023-04-09T14:36:28.247Z,33.45
2023-04-09T14:38:56.982Z,33.97
2023-04-09T14:41:24.380Z,34.15
2023-04-09T14:43:50.889Z,34.28
2023-04-09T14:46:17.293Z,34.17
2023-04-09T14:48:43.697Z,36.78
2023-04-09T14:51:11.090Z,38.63
2023-04-09T14:53:37.850Z,36.47
2023-04-09T14:56:04.445Z,33.58
2023-04-09T14:58:30.986Z,34.42
2023-04-09T15:00:57.541Z,31.08
2023-04-09T15:03:24.037Z,34.53
2023-04-09T15:05:50.713Z,37.42
2023-04-09T15:08:17.202Z,36.55
2023-04-09T15:10:43.569Z,34.50
2023-04-09T15:13:09.911Z,39.03
2023-04-09T15:15:36.266Z,40.85
2023-04-09T15:18:05.857Z,36.13
2023-04-09T15:20:36.928Z,32.63
2023-04-09T15:23:03.283Z,40.40
2023-04-09T15:25:29.776Z,34.42
2023-04-09T15:27:56.136Z,35.67
2023-04-09T15:30:22.601Z,36.17
2023-04-09T15:32:49.084Z,33.10
2023-04-09T15:35:18.979Z,39.67
2023-04-09T15:37:45.345Z,34.10
2023-04-09T15:40:12.319Z,35.55
2023-04-09T15:42:38.679Z,33.63
2023-04-09T15:45:05.684Z,34.28
2023-04-09T15:47:33.396Z,35.67
2023-04-09T15:49:59.910Z,32.40
2023-04-09T15:52:26.890Z,38.17
2023-04-09T15:54:53.288Z,30.58
2023-04-09T15:57:20.911Z,30.50
2023-04-09T15:59:48.329Z,30.50
2023-04-09T16:02:14.783Z,32.13
2023-04-09T16:04:41.338Z,32.42
2023-04-09T16:07:09.211Z,35.35
2023-04-09T16:09:35.762Z,38.45
2023-04-09T16:12:02.754Z,35.45
2023-04-09T16:14:30.031Z,34.45
2023-04-09T16:16:56.464Z,33.53
2023-04-09T16:19:24.452Z,36.92
2023-04-09T16:21:50.834Z,38.92
2023-04-09T16:24:17.204Z,34.95
2023-04-09T16:26:45.215Z,38.42
2023-04-09T16:29:12.837Z,41.50
2023-04-09T16:31:42.150Z,37.97
2023-04-09T16:34:08.625Z,40.55
2023-04-09T16:36:37.035Z,40.88
2023-04-09T16:39:04.642Z,44.45
2023-04-09T16:41:31.104Z,36.40
2023-04-09T16:43:57.545Z,46.65
2023-04-09T16:46:24.026Z,39.72
2023-04-09T16:48:50.566Z,45.83
2023-04-09T16:51:17.093Z,42.78
2023-04-09T16:53:43.542Z,39.28
2023-04-09T16:56:09.959Z,47.30
2023-04-09T16:58:36.350Z,52.92
2023-04-09T17:01:02.785Z,56.95
2023-04-09T17:03:29.740Z,45.35
2023-04-09T17:05:57.206Z,47.20
2023-04-09T17:08:24.404Z,51.20
2023-04-09T17:10:52.055Z,47.35
2023-04-09T17:13:18.466Z,48.65
2023-04-09T17:15:44.835Z,46.97
2023-04-09T17:18:11.452Z,47.42
2023-04-09T17:20:37.884Z,45.22
2023-04-09T17:23:04.253Z,46.83
2023-04-09T17:25:30.624Z,44.58
2023-04-09T17:27:57.157Z,46.10
2023-04-09T17:30:28.509Z,49.60
2023-04-09T17:32:55.000Z,49.13
2023-04-09T17:35:21.443Z,48.72
2023-04-09T17:37:47.814Z,48.53
2023-04-09T17:40:15.489Z,44.42
2023-04-09T17:42:41.891Z,49.40
2023-04-09T17:45:08.871Z,54.55
2023-04-09T17:47:35.289Z,50.28
2023-04-09T17:50:01.737Z,46.53
2023-04-09T17:52:29.332Z,51.08
2023-04-09T17:54:55.711Z,52.17
2023-04-09T17:57:22.142Z,51.60
2023-04-09T17:59:48.908Z,48.63
2023-04-09T18:02:15.394Z,54.85
2023-04-09T18:04:42.440Z,50.42
2023-04-09T18:07:08.916Z,54.42
2023-04-09T18:09:35.340Z,46.13
2023-04-09T18:12:02.568Z,46.95
2023-04-09T18:14:32.174Z,53.42
2023-04-09T18:16:59.098Z,53.88
2023-04-09T18:19:25.574Z,50.90
2023-04-09T18:21:51.951Z,51.83
2023-04-09T18:24:18.335Z,55.35
2023-04-09T18:26:44.684Z,54.88
2023-04-09T18:29:11.076Z,57.53
2023-04-09T18:31:37.490Z,56.67
2023-04-09T18:34:03.885Z,53.25
2023-04-09T18:36:30.461Z,60.85
2023-04-09T18:38:58.187Z,60.20
2023-04-09T18:41:25.952Z,61.97
2023-04-09T18:43:52.635Z,57.80
2023-04-09T18:46:19.092Z,55.05
2023-04-09T18:48:47.044Z,50.83
2023-04-09T18:51:14.198Z,58.72
2023-04-09T18:53:41.480Z,54.00
2023-04-09T18:56:08.295Z,52.63
2023-04-09T18:58:34.737Z,54.80
2023-04-09T19:01:08.480Z,54.60
2023-04-09T19:03:35.059Z,55.55
2023-04-09T19:06:01.748Z,60.75
2023-04-09T19:08:32.165Z,48.60
2023-04-09T19:10:58.553Z,45.30
2023-04-09T19:13:25.164Z,57.55
2023-04-09T19:15:51.521Z,48.08
2023-04-09T19:18:18.659Z,53.20
2023-04-09T19:20:45.034Z,50.22
2023-04-09T19:23:11.395Z,49.78
2023-04-09T19:25:37.752Z,51.97
2023-04-09T19:28:04.092Z,47.13
2023-04-09T19:30:30.466Z,48.95
2023-04-09T19:32:56.871Z,48.20
2023-04-09T19:35:23.381Z,52.53
2023-04-09T19:37:49.784Z,50.47
2023-04-09T19:40:17.891Z,51.42
2023-04-09T19:42:44.317Z,53.00
2023-04-09T19:45:11.256Z,49.88
2023-04-09T19:47:37.631Z,51.15
2023-04-09T19:50:04.249Z,50.17
2023-04-09T19:52:30.743Z,44.05
2023-04-09T19:54:57.702Z,46.20
2023-04-09T19:57:24.064Z,43.47
2023-04-09T19:59:52.109Z,44.35
2023-04-09T20:02:18.566Z,53.17
2023-04-09T20:04:45.315Z,46.40
2023-04-09T20:07:11.663Z,42.25
2023-04-09T20:09:41.253Z,44.72
2023-04-09T20:12:10.687Z,45.90
2023-04-09T20:14:38.105Z,47.75
2023-04-09T20:17:05.680Z,43.33
2023-04-09T20:19:32.360Z,46.33
2023-04-09T20:22:00.200Z,44.80
2023-04-09T20:24:28.018Z,46.67
2023-04-09T20:26:55.743Z,47.80
2023-04-09T20:29:22.207Z,45.40
2023-04-09T20:31:48.622Z,47.90
2023-04-09T20:34:15.263Z,47.90
2023-04-09T20:36:43.670Z,45.42
2023-04-09T20:39:11.488Z,46.47
2023-04-09T20:41:37.944Z,39.97
2023-04-09T20:44:04.283Z,45.40
2023-04-09T20:46:30.724Z,42.78
2023-04-09T20:48:57.153Z,43.72
2023-04-09T20:51:23.546Z,42.47
2023-04-09T20:53:49.884Z,38.55
2023-04-09T20:56:16.827Z,40.33
2023-04-09T20:58:43.188Z,43.20
2023-04-09T21:01:09.768Z,44.15
2023-04-09T21:03:37.932Z,42.38
2023-04-09T21:06:04.686Z,41.78
2023-04-09T21:08:31.372Z,35.15
2023-04-09T21:10:57.753Z,47.13
2023-04-09T21:13:24.545Z,39.25
2023-04-09T21:15:51.179Z,38.00
2023-04-09T21:18:17.615Z,40.33
2023-04-09T21:20:47.664Z,37.47
2023-04-09T21:23:14.394Z,37.83
2023-04-09T21:25:41.347Z,42.00
2023-04-09T21:28:08.013Z,38.47
2023-04-09T21:30:35.363Z,40.00
2023-04-09T21:33:03.230Z,37.03
2023-04-09T21:35:29.908Z,35.13
2023-04-09T21:37:56.684Z,39.80
2023-04-09T21:40:23.830Z,36.63
2023-04-09T21:42:50.294Z,40.45
2023-04-09T21:45:17.420Z,38.80
2023-04-09T21:47:43.938Z,38.28
2023-04-09T21:50:10.863Z,38.33
2023-04-09T21:52:37.350Z,38.33
2023-04-09T21:55:03.914Z,36.75
2023-04-09T21:57:30.336Z,36.90
2023-04-09T21:59:56.765Z,42.88
2023-04-09T22:02:23.230Z,41.75
2023-04-09T22:04:50.757Z,39.45
2023-04-09T22:07:17.122Z,36.95
2023-04-09T22:09:43.510Z,41.70
2023-04-09T22:12:09.878Z,43.38
2023-04-09T22:14:36.295Z,43.33
2023-04-09T22:17:02.978Z,42.03
2023-04-09T22:19:31.169Z,38.67
2023-04-09T22:21:58.061Z,39.08
2023-04-09T22:24:29.762Z,45.58
2023-04-09T22:26:59.003Z,39.30
2023-04-09T22:29:26.496Z,38.80
2023-04-09T22:31:52.867Z,39.95
2023-04-09T22:34:21.339Z,40.67
2023-04-09T22:36:48.378Z,38.92
2023-04-09T22:39:14.842Z,39.83
2023-04-09T22:41:41.473Z,38.45
2023-04-09T22:44:09.363Z,38.72
2023-04-09T22:46:36.417Z,35.95
2023-04-09T22:49:05.432Z,39.08
2023-04-09T22:51:34.454Z,40.03
2023-04-09T22:54:01.788Z,39.38
2023-04-09T22:56:28.615Z,38.25
2023-04-09T22:58:55.155Z,43.75
2023-04-09T23:01:22.090Z,40.45
2023-04-09T23:03:49.898Z,42.13
2023-04-09T23:06:19.440Z,42.03
2023-04-09T23:08:46.484Z,41.90
2023-04-09T23:11:12.913Z,40.55
2023-04-09T23:13:39.702Z,38.08
2023-04-09T23:16:07.428Z,42.10
2023-04-09T23:18:35.441Z,38.08
2023-04-09T23:21:09.333Z,41.17
2023-04-09T23:23:36.581Z,37.15
2023-04-09T23:26:03.911Z,36.70
2023-04-09T23:28:30.998Z,37.25
2023-04-09T23:30:57.377Z,39.70
2023-04-09T23:33:24.154Z,38.88
2023-04-09T23:35:51.172Z,40.35
2023-04-09T23:38:17.658Z,37.92
2023-04-09T23:40:44.053Z,39.10
2023-04-09T23:43:10.903Z,35.45
2023-04-09T23:45:37.293Z,42.35
2023-04-09T23:48:06.039Z,37.97
2023-04-09T23:50:32.443Z,37.65
2023-04-09T23:53:00.911Z,37.28
2023-04-09T23:55:27.771Z,36.30
2023-04-09T23:57:54.191Z,39.78
